DAUH/HME METAR and TAF weather

Enter ICAO airport designator
Station Type Date Time Source
DAUH METAR 2021/01/17 19:00 UTC NOAA

DAUH 171900Z 00000KT CAVOK 10/M01 Q1027


Station Type Date Time Source
DAUH Decoded METAR 2021/01/17 19:00 UTC NOAA

Hassi-Messaoud, Algeria (DAUH) 31-40N 006-09E 142M
Jan 17, 2021 - 02:00 PM EST / 2021.01.17 1900 UTC
Wind: Calm:0
Visibility: greater than 7 mile(s):0
Temperature: 50 F (10 C)
Dew Point: 30 F (-1 C)
Relative Humidity: 46%
Pressure (altimeter): 30.33 in. Hg (1027 hPa)
ob: DAUH 171900Z 00000KT CAVOK 10/M01 Q1027
cycle: 19

Station Type Date Time Source
DAUH TAF 2021/01/17 18:33 UTC NOAA

TAF DAUH 171700Z 1718/1818 20005KT CAVOK

Example: see airport list